sensor_id;sensor_type;location;lat;lon;timestamp;temperature;humidity
11399;DHT22;5755;48.116;11.608;2022-11-15T00:00:04;4.40;99.90
11399;DHT22;5755;48.116;11.608;2022-11-15T00:02:33;4.40;99.90
11399;DHT22;5755;48.116;11.608;2022-11-15T00:05:00;4.50;99.90
11399;DHT22;5755;48.116;11.608;2022-11-15T00:07:26;4.60;99.90
11399;DHT22;5755;48.116;11.608;2022-11-15T00:09:53;4.60;99.90
11399;DHT22;5755;48.116;11.608;2022-11-15T00:12:20;4.60;99.90
11399;DHT22;5755;48.116;11.608;2022-11-15T00:14:47;4.60;99.90
11399;DHT22;5755;48.116;11.608;2022-11-15T00:17:15;4.60;99.90
11399;DHT22;5755;48.116;11.608;2022-11-15T00:19:43;4.60;99.90
11399;DHT22;5755;48.116;11.608;2022-11-15T00:22:10;4.60;99.90
11399;DHT22;5755;48.116;11.608;2022-11-15T00:24:43;4.50;99.90
11399;DHT22;5755;48.116;11.608;2022-11-15T00:27:09;4.50;99.90
11399;DHT22;5755;48.116;11.608;2022-11-15T00:29:36;4.40;99.90
11399;DHT22;5755;48.116;11.608;2022-11-15T00:32:04;4.40;99.90
11399;DHT22;5755;48.116;11.608;2022-11-15T00:34:31;4.40;99.90
11399;DHT22;5755;48.116;11.608;2022-11-15T00:36:59;4.40;99.90
11399;DHT22;5755;48.116;11.608;2022-11-15T00:39:26;4.40;99.90
11399;DHT22;5755;48.116;11.608;2022-11-15T00:41:53;4.40;99.90
11399;DHT22;5755;48.116;11.608;2022-11-15T00:44:20;4.40;99.90
11399;DHT22;5755;48.116;11.608;2022-11-15T00:46:47;4.20;99.90
11399;DHT22;5755;48.116;11.608;2022-11-15T00:49:13;4.20;99.90
11399;DHT22;5755;48.116;11.608;2022-11-15T00:51:40;4.10;99.90
11399;DHT22;5755;48.116;11.608;2022-11-15T00:54:20;4.00;99.90
11399;DHT22;5755;48.116;11.608;2022-11-15T00:56:47;4.10;99.90
11399;DHT22;5755;48.116;11.608;2022-11-15T00:59:14;4.20;99.90
11399;DHT22;5755;48.116;11.608;2022-11-15T01:01:41;4.20;99.90
11399;DHT22;5755;48.116;11.608;2022-11-15T01:04:07;4.30;99.90
11399;DHT22;5755;48.116;11.608;2022-11-15T01:06:34;4.20;99.90
11399;DHT22;5755;48.116;11.608;2022-11-15T01:09:01;4.20;99.90
11399;DHT22;5755;48.116;11.608;2022-11-15T01:11:29;4.10;99.90
11399;DHT22;5755;48.116;11.608;2022-11-15T01:13:56;4.00;99.90
11399;DHT22;5755;48.116;11.608;2022-11-15T01:16:23;4.00;99.90
11399;DHT22;5755;48.116;11.608;2022-11-15T01:18:50;4.00;99.90
11399;DHT22;5755;48.116;11.608;2022-11-15T01:21:18;4.10;99.90
11399;DHT22;5755;48.116;11.608;2022-11-15T01:23:45;4.20;99.90
11399;DHT22;5755;48.116;11.608;2022-11-15T01:26:14;4.20;99.90
11399;DHT22;5755;48.116;11.608;2022-11-15T01:28:43;4.20;99.70
11399;DHT22;5755;48.116;11.608;2022-11-15T01:31:13;4.20;99.70
11399;DHT22;5755;48.116;11.608;2022-11-15T01:33:40;4.20;99.90
11399;DHT22;5755;48.116;11.608;2022-11-15T01:36:10;4.20;99.90
11399;DHT22;5755;48.116;11.608;2022-11-15T01:38:37;4.20;99.50
11399;DHT22;5755;48.116;11.608;2022-11-15T01:41:04;4.20;99.20
11399;DHT22;5755;48.116;11.608;2022-11-15T01:43:33;4.20;99.40
11399;DHT22;5755;48.116;11.608;2022-11-15T01:46:06;4.10;99.30
11399;DHT22;5755;48.116;11.608;2022-11-15T01:48:35;4.00;99.60
11399;DHT22;5755;48.116;11.608;2022-11-15T01:51:06;4.00;99.90
11399;DHT22;5755;48.116;11.608;2022-11-15T01:53:37;4.00;99.90
11399;DHT22;5755;48.116;11.608;2022-11-15T01:56:08;4.00;99.90
11399;DHT22;5755;48.116;11.608;2022-11-15T01:58:36;4.00;99.90
11399;DHT22;5755;48.116;11.608;2022-11-15T02:01:04;4.00;99.90
11399;DHT22;5755;48.116;11.608;2022-11-15T02:03:35;3.90;99.80
11399;DHT22;5755;48.116;11.608;2022-11-15T02:06:05;3.90;99.80
11399;DHT22;5755;48.116;11.608;2022-11-15T02:08:32;3.80;99.60
11399;DHT22;5755;48.116;11.608;2022-11-15T02:10:59;3.80;99.90
11399;DHT22;5755;48.116;11.608;2022-11-15T02:13:25;3.70;99.90
11399;DHT22;5755;48.116;11.608;2022-11-15T02:16:01;3.70;99.90
11399;DHT22;5755;48.116;11.608;2022-11-15T02:18:34;3.60;99.90
11399;DHT22;5755;48.116;11.608;2022-11-15T02:21:15;3.60;99.90
11399;DHT22;5755;48.116;11.608;2022-11-15T02:24:23;3.60;99.90
11399;DHT22;5755;48.116;11.608;2022-11-15T02:27:11;3.70;99.90
11399;DHT22;5755;48.116;11.608;2022-11-15T02:29:56;3.60;99.90
11399;DHT22;5755;48.116;11.608;2022-11-15T02:32:30;3.60;99.90
11399;DHT22;5755;48.116;11.608;2022-11-15T02:35:06;3.50;99.90
11399;DHT22;5755;48.116;11.608;2022-11-15T02:37:42;3.40;99.90
11399;DHT22;5755;48.116;11.608;2022-11-15T02:40:14;3.40;99.90
11399;DHT22;5755;48.116;11.608;2022-11-15T02:42:47;3.50;99.90
11399;DHT22;5755;48.116;11.608;2022-11-15T02:45:40;3.50;99.90
11399;DHT22;5755;48.116;11.608;2022-11-15T02:48:11;3.50;99.90
11399;DHT22;5755;48.116;11.608;2022-11-15T02:50:38;3.40;99.90
11399;DHT22;5755;48.116;11.608;2022-11-15T02:53:05;3.40;99.90
11399;DHT22;5755;48.116;11.608;2022-11-15T02:55:34;3.40;99.90
11399;DHT22;5755;48.116;11.608;2022-11-15T02:58:20;3.40;99.90
11399;DHT22;5755;48.116;11.608;2022-11-15T03:00:54;3.40;99.90
11399;DHT22;5755;48.116;11.608;2022-11-15T03:03:46;3.40;99.90
11399;DHT22;5755;48.116;11.608;2022-11-15T03:06:22;3.40;99.90
11399;DHT22;5755;48.116;11.608;2022-11-15T03:09:01;3.50;99.90
11399;DHT22;5755;48.116;11.608;2022-11-15T03:11:32;3.40;99.90
11399;DHT22;5755;48.116;11.608;2022-11-15T03:14:07;3.40;99.60
11399;DHT22;5755;48.116;11.608;2022-11-15T03:16:39;3.40;99.90
11399;DHT22;5755;48.116;11.608;2022-11-15T03:19:12;3.50;99.90
11399;DHT22;5755;48.116;11.608;2022-11-15T03:21:40;3.50;99.70
11399;DHT22;5755;48.116;11.608;2022-11-15T03:24:08;3.50;99.60
11399;DHT22;5755;48.116;11.608;2022-11-15T03:26:44;3.50;99.40
11399;DHT22;5755;48.116;11.608;2022-11-15T03:29:15;3.50;99.20
11399;DHT22;5755;48.116;11.608;2022-11-15T03:31:45;3.50;99.10
11399;DHT22;5755;48.116;11.608;2022-11-15T03:34:21;3.50;99.00
11399;DHT22;5755;48.116;11.608;2022-11-15T03:36:51;3.40;99.00
11399;DHT22;5755;48.116;11.608;2022-11-15T03:39:20;3.40;98.90
11399;DHT22;5755;48.116;11.608;2022-11-15T03:41:49;3.30;99.00
11399;DHT22;5755;48.116;11.608;2022-11-15T03:44:30;3.20;99.30
11399;DHT22;5755;48.116;11.608;2022-11-15T03:47:03;3.20;99.10
11399;DHT22;5755;48.116;11.608;2022-11-15T03:49:36;3.20;99.10
11399;DHT22;5755;48.116;11.608;2022-11-15T03:52:05;3.20;99.70
11399;DHT22;5755;48.116;11.608;2022-11-15T03:54:32;3.20;99.90
11399;DHT22;5755;48.116;11.608;2022-11-15T03:56:59;3.10;99.80
11399;DHT22;5755;48.116;11.608;2022-11-15T03:59:26;3.10;99.90
11399;DHT22;5755;48.116;11.608;2022-11-15T04:01:52;3.10;99.90
11399;DHT22;5755;48.116;11.608;2022-11-15T04:04:19;3.00;99.80
11399;DHT22;5755;48.116;11.608;2022-11-15T04:06:50;3.00;99.80
11399;DHT22;5755;48.116;11.608;2022-11-15T04:09:17;3.00;99.80
11399;DHT22;5755;48.116;11.608;2022-11-15T04:11:44;3.10;99.80
11399;DHT22;5755;48.116;11.608;2022-11-15T04:14:11;3.10;99.90
11399;DHT22;5755;48.116;11.608;2022-11-15T04:16:43;3.10;99.90
11399;DHT22;5755;48.116;11.608;2022-11-15T04:19:10;3.10;99.90
11399;DHT22;5755;48.116;11.608;2022-11-15T04:21:56;3.20;99.90
11399;DHT22;5755;48.116;11.608;2022-11-15T04:24:41;3.30;99.60
11399;DHT22;5755;48.116;11.608;2022-11-15T04:27:07;3.30;99.40
11399;DHT22;5755;48.116;11.608;2022-11-15T04:29:34;3.30;99.20
11399;DHT22;5755;48.116;11.608;2022-11-15T04:32:01;3.30;99.40
11399;DHT22;5755;48.116;11.608;2022-11-15T04:34:31;3.30;99.30
11399;DHT22;5755;48.116;11.608;2022-11-15T04:36:59;3.30;98.90
11399;DHT22;5755;48.116;11.608;2022-11-15T04:39:37;3.20;98.70
11399;DHT22;5755;48.116;11.608;2022-11-15T04:42:04;3.20;98.80
11399;DHT22;5755;48.116;11.608;2022-11-15T04:44:31;3.10;99.30
11399;DHT22;5755;48.116;11.608;2022-11-15T04:46:58;3.00;99.80
11399;DHT22;5755;48.116;11.608;2022-11-15T04:49:25;3.00;99.80
11399;DHT22;5755;48.116;11.608;2022-11-15T04:51:51;3.00;99.80
11399;DHT22;5755;48.116;11.608;2022-11-15T04:54:20;3.00;99.60
11399;DHT22;5755;48.116;11.608;2022-11-15T04:56:46;3.00;99.50
11399;DHT22;5755;48.116;11.608;2022-11-15T04:59:13;3.00;99.40
11399;DHT22;5755;48.116;11.608;2022-11-15T05:01:40;3.00;99.30
11399;DHT22;5755;48.116;11.608;2022-11-15T05:04:07;3.00;99.30
11399;DHT22;5755;48.116;11.608;2022-11-15T05:06:46;3.00;99.40
11399;DHT22;5755;48.116;11.608;2022-11-15T05:09:13;3.10;99.10
11399;DHT22;5755;48.116;11.608;2022-11-15T05:11:41;3.10;98.90
11399;DHT22;5755;48.116;11.608;2022-11-15T05:14:09;3.00;98.80
11399;DHT22;5755;48.116;11.608;2022-11-15T05:16:36;3.00;98.90
11399;DHT22;5755;48.116;11.608;2022-11-15T05:19:03;3.00;99.00
11399;DHT22;5755;48.116;11.608;2022-11-15T05:21:30;3.00;99.00
11399;DHT22;5755;48.116;11.608;2022-11-15T05:23:58;3.00;99.00
11399;DHT22;5755;48.116;11.608;2022-11-15T05:26:25;3.00;98.90
11399;DHT22;5755;48.116;11.608;2022-11-15T05:28:54;3.00;98.90
11399;DHT22;5755;48.116;11.608;2022-11-15T05:31:22;2.90;99.10
11399;DHT22;5755;48.116;11.608;2022-11-15T05:33:49;2.90;99.10
11399;DHT22;5755;48.116;11.608;2022-11-15T05:36:25;2.90;99.20
11399;DHT22;5755;48.116;11.608;2022-11-15T05:38:54;2.90;99.10
11399;DHT22;5755;48.116;11.608;2022-11-15T05:41:24;2.90;99.20
11399;DHT22;5755;48.116;11.608;2022-11-15T05:43:53;2.90;99.30
11399;DHT22;5755;48.116;11.608;2022-11-15T05:46:20;2.80;99.20
11399;DHT22;5755;48.116;11.608;2022-11-15T05:48:49;2.90;99.50
11399;DHT22;5755;48.116;11.608;2022-11-15T05:51:17;2.90;99.20
11399;DHT22;5755;48.116;11.608;2022-11-15T05:53:50;2.90;99.40
11399;DHT22;5755;48.116;11.608;2022-11-15T05:56:19;2.90;99.30
11399;DHT22;5755;48.116;11.608;2022-11-15T05:58:46;2.80;99.10
11399;DHT22;5755;48.116;11.608;2022-11-15T06:01:14;2.80;99.00
11399;DHT22;5755;48.116;11.608;2022-11-15T06:03:41;2.80;99.00
11399;DHT22;5755;48.116;11.608;2022-11-15T06:06:19;2.70;99.00
11399;DHT22;5755;48.116;11.608;2022-11-15T06:08:46;2.70;99.40
11399;DHT22;5755;48.116;11.608;2022-11-15T06:11:13;2.80;99.40
11399;DHT22;5755;48.116;11.608;2022-11-15T06:13:40;2.80;99.10
11399;DHT22;5755;48.116;11.608;2022-11-15T06:16:07;2.80;99.10
11399;DHT22;5755;48.116;11.608;2022-11-15T06:18:36;2.80;99.30
11399;DHT22;5755;48.116;11.608;2022-11-15T06:21:03;2.80;99.20
11399;DHT22;5755;48.116;11.608;2022-11-15T06:23:32;2.80;99.50
11399;DHT22;5755;48.116;11.608;2022-11-15T06:26:00;2.80;99.30
11399;DHT22;5755;48.116;11.608;2022-11-15T06:28:28;2.90;98.90
11399;DHT22;5755;48.116;11.608;2022-11-15T06:30:55;2.90;99.00
11399;DHT22;5755;48.116;11.608;2022-11-15T06:33:23;2.90;98.80
11399;DHT22;5755;48.116;11.608;2022-11-15T06:36:00;2.80;99.10
11399;DHT22;5755;48.116;11.608;2022-11-15T06:38:27;2.70;99.40
11399;DHT22;5755;48.116;11.608;2022-11-15T06:40:54;2.70;99.80
11399;DHT22;5755;48.116;11.608;2022-11-15T06:43:25;2.80;99.80
11399;DHT22;5755;48.116;11.608;2022-11-15T06:45:52;2.90;99.50
11399;DHT22;5755;48.116;11.608;2022-11-15T06:48:19;2.90;99.20
11399;DHT22;5755;48.116;11.608;2022-11-15T06:50:50;2.90;99.40
11399;DHT22;5755;48.116;11.608;2022-11-15T06:53:27;2.90;99.30
11399;DHT22;5755;48.116;11.608;2022-11-15T06:55:58;3.10;99.20
11399;DHT22;5755;48.116;11.608;2022-11-15T06:58:27;3.10;98.90
11399;DHT22;5755;48.116;11.608;2022-11-15T07:01:02;3.10;99.00
11399;DHT22;5755;48.116;11.608;2022-11-15T07:03:30;3.20;99.10
11399;DHT22;5755;48.116;11.608;2022-11-15T07:05:57;3.30;98.80
11399;DHT22;5755;48.116;11.608;2022-11-15T07:08:28;3.40;98.30
11399;DHT22;5755;48.116;11.608;2022-11-15T07:10:58;3.50;98.00
11399;DHT22;5755;48.116;11.608;2022-11-15T07:13:26;3.50;97.80
11399;DHT22;5755;48.116;11.608;2022-11-15T07:15:55;3.50;97.90
11399;DHT22;5755;48.116;11.608;2022-11-15T07:18:22;3.40;98.20
11399;DHT22;5755;48.116;11.608;2022-11-15T07:20:49;3.40;98.60
11399;DHT22;5755;48.116;11.608;2022-11-15T07:23:16;3.50;98.80
11399;DHT22;5755;48.116;11.608;2022-11-15T07:25:44;3.50;98.80
11399;DHT22;5755;48.116;11.608;2022-11-15T07:28:13;3.60;98.70
11399;DHT22;5755;48.116;11.608;2022-11-15T07:30:40;3.70;98.20
11399;DHT22;5755;48.116;11.608;2022-11-15T07:33:07;3.80;98.10
11399;DHT22;5755;48.116;11.608;2022-11-15T07:35:34;3.80;98.10
11399;DHT22;5755;48.116;11.608;2022-11-15T07:38:02;3.90;98.20
11399;DHT22;5755;48.116;11.608;2022-11-15T07:40:37;4.20;98.60
11399;DHT22;5755;48.116;11.608;2022-11-15T07:43:08;4.50;97.80
11399;DHT22;5755;48.116;11.608;2022-11-15T07:45:40;4.70;96.80
11399;DHT22;5755;48.116;11.608;2022-11-15T07:48:13;4.70;96.60
11399;DHT22;5755;48.116;11.608;2022-11-15T07:50:41;4.70;96.90
11399;DHT22;5755;48.116;11.608;2022-11-15T07:53:13;4.80;97.00
11399;DHT22;5755;48.116;11.608;2022-11-15T07:55:43;5.00;96.60
11399;DHT22;5755;48.116;11.608;2022-11-15T07:58:12;5.10;95.10
11399;DHT22;5755;48.116;11.608;2022-11-15T08:00:38;5.30;95.10
11399;DHT22;5755;48.116;11.608;2022-11-15T08:03:07;5.40;94.70
11399;DHT22;5755;48.116;11.608;2022-11-15T08:05:35;5.60;94.70
11399;DHT22;5755;48.116;11.608;2022-11-15T08:08:03;5.60;95.20
11399;DHT22;5755;48.116;11.608;2022-11-15T08:10:56;5.60;95.30
11399;DHT22;5755;48.116;11.608;2022-11-15T08:13:39;5.80;95.20
11399;DHT22;5755;48.116;11.608;2022-11-15T08:19:31;6.40;93.30
11399;DHT22;5755;48.116;11.608;2022-11-15T08:31:54;7.70;85.00
11399;DHT22;5755;48.116;11.608;2022-11-15T08:34:21;7.90;81.30
11399;DHT22;5755;48.116;11.608;2022-11-15T08:36:55;8.10;80.10
11399;DHT22;5755;48.116;11.608;2022-11-15T08:39:22;8.60;77.20
11399;DHT22;5755;48.116;11.608;2022-11-15T08:41:55;9.20;74.10
11399;DHT22;5755;48.116;11.608;2022-11-15T08:47:51;10.80;57.60
11399;DHT22;5755;48.116;11.608;2022-11-15T08:50:18;11.60;48.30
11399;DHT22;5755;48.116;11.608;2022-11-15T08:52:49;11.90;47.50
11399;DHT22;5755;48.116;11.608;2022-11-15T08:55:16;12.50;39.10
11399;DHT22;5755;48.116;11.608;2022-11-15T08:57:43;13.30;34.80
11399;DHT22;5755;48.116;11.608;2022-11-15T09:00:11;14.20;28.70
11399;DHT22;5755;48.116;11.608;2022-11-15T09:02:39;15.20;28.00
11399;DHT22;5755;48.116;11.608;2022-11-15T09:05:08;15.50;24.80
11399;DHT22;5755;48.116;11.608;2022-11-15T09:07:35;15.80;23.70
11399;DHT22;5755;48.116;11.608;2022-11-15T09:10:02;15.80;24.70
11399;DHT22;5755;48.116;11.608;2022-11-15T09:12:29;15.70;23.10
11399;DHT22;5755;48.116;11.608;2022-11-15T09:14:56;15.50;23.00
11399;DHT22;5755;48.116;11.608;2022-11-15T09:17:23;16.50;21.90
11399;DHT22;5755;48.116;11.608;2022-11-15T09:19:50;16.80;22.20
11399;DHT22;5755;48.116;11.608;2022-11-15T09:22:18;17.40;21.30
11399;DHT22;5755;48.116;11.608;2022-11-15T09:24:55;17.50;20.30
11399;DHT22;5755;48.116;11.608;2022-11-15T09:27:22;17.20;19.10
11399;DHT22;5755;48.116;11.608;2022-11-15T09:30:01;17.00;19.40
11399;DHT22;5755;48.116;11.608;2022-11-15T09:32:29;17.60;18.70
11399;DHT22;5755;48.116;11.608;2022-11-15T09:35:01;18.50;16.30
11399;DHT22;5755;48.116;11.608;2022-11-15T09:37:31;18.40;16.50
11399;DHT22;5755;48.116;11.608;2022-11-15T09:39:58;18.70;16.40
11399;DHT22;5755;48.116;11.608;2022-11-15T09:42:39;19.20;15.80
11399;DHT22;5755;48.116;11.608;2022-11-15T09:45:17;18.70;16.70
11399;DHT22;5755;48.116;11.608;2022-11-15T09:48:05;19.20;15.60
11399;DHT22;5755;48.116;11.608;2022-11-15T09:50:40;19.00;15.40
11399;DHT22;5755;48.116;11.608;2022-11-15T09:53:30;19.20;14.90
11399;DHT22;5755;48.116;11.608;2022-11-15T09:56:00;17.20;16.90
11399;DHT22;5755;48.116;11.608;2022-11-15T09:58:34;17.20;18.50
11399;DHT22;5755;48.116;11.608;2022-11-15T10:01:06;17.50;18.40
11399;DHT22;5755;48.116;11.608;2022-11-15T10:03:39;16.90;18.30
11399;DHT22;5755;48.116;11.608;2022-11-15T10:06:14;17.30;18.90
11399;DHT22;5755;48.116;11.608;2022-11-15T10:08:53;17.50;18.00
11399;DHT22;5755;48.116;11.608;2022-11-15T10:11:23;16.20;19.10
11399;DHT22;5755;48.116;11.608;2022-11-15T10:13:53;16.10;20.40
11399;DHT22;5755;48.116;11.608;2022-11-15T10:16:47;16.80;20.00
11399;DHT22;5755;48.116;11.608;2022-11-15T10:19:23;17.30;18.50
11399;DHT22;5755;48.116;11.608;2022-11-15T10:22:00;17.40;18.60
11399;DHT22;5755;48.116;11.608;2022-11-15T10:24:37;17.50;18.10
11399;DHT22;5755;48.116;11.608;2022-11-15T10:27:09;17.50;17.40
11399;DHT22;5755;48.116;11.608;2022-11-15T10:29:42;17.60;17.90
11399;DHT22;5755;48.116;11.608;2022-11-15T10:32:10;17.20;18.20
11399;DHT22;5755;48.116;11.608;2022-11-15T10:34:37;16.90;19.50
11399;DHT22;5755;48.116;11.608;2022-11-15T10:37:04;17.30;18.50
11399;DHT22;5755;48.116;11.608;2022-11-15T10:39:33;17.40;18.20
11399;DHT22;5755;48.116;11.608;2022-11-15T10:42:15;17.50;18.10
11399;DHT22;5755;48.116;11.608;2022-11-15T10:44:43;17.80;17.90
11399;DHT22;5755;48.116;11.608;2022-11-15T10:47:26;17.60;18.90
11399;DHT22;5755;48.116;11.608;2022-11-15T10:50:04;17.30;18.00
11399;DHT22;5755;48.116;11.608;2022-11-15T10:52:34;17.10;18.40
11399;DHT22;5755;48.116;11.608;2022-11-15T10:55:20;16.90;18.60
11399;DHT22;5755;48.116;11.608;2022-11-15T10:57:51;16.50;19.20
11399;DHT22;5755;48.116;11.608;2022-11-15T11:00:36;15.70;21.00
11399;DHT22;5755;48.116;11.608;2022-11-15T11:03:06;14.80;23.30
11399;DHT22;5755;48.116;11.608;2022-11-15T11:05:46;14.60;24.10
11399;DHT22;5755;48.116;11.608;2022-11-15T11:08:25;14.40;25.10
11399;DHT22;5755;48.116;11.608;2022-11-15T11:10:55;14.40;24.80
11399;DHT22;5755;48.116;11.608;2022-11-15T11:13:33;14.10;24.60
11399;DHT22;5755;48.116;11.608;2022-11-15T11:16:20;14.00;27.00
11399;DHT22;5755;48.116;11.608;2022-11-15T11:19:03;14.00;25.00
11399;DHT22;5755;48.116;11.608;2022-11-15T11:21:44;14.00;24.50
11399;DHT22;5755;48.116;11.608;2022-11-15T11:24:20;13.90;25.40
11399;DHT22;5755;48.116;11.608;2022-11-15T11:27:07;13.90;25.70
11399;DHT22;5755;48.116;11.608;2022-11-15T11:29:45;13.90;25.20
11399;DHT22;5755;48.116;11.608;2022-11-15T11:32:30;13.80;24.50
11399;DHT22;5755;48.116;11.608;2022-11-15T11:35:06;13.90;24.80
11399;DHT22;5755;48.116;11.608;2022-11-15T11:41:21;13.70;26.70
11399;DHT22;5755;48.116;11.608;2022-11-15T11:44:18;13.50;26.60
11399;DHT22;5755;48.116;11.608;2022-11-15T11:50:21;13.60;26.70
11399;DHT22;5755;48.116;11.608;2022-11-15T11:53:03;13.70;26.70
11399;DHT22;5755;48.116;11.608;2022-11-15T11:55:39;13.70;26.70
11399;DHT22;5755;48.116;11.608;2022-11-15T11:58:14;13.60;26.70
11399;DHT22;5755;48.116;11.608;2022-11-15T12:04:00;13.60;26.70
11399;DHT22;5755;48.116;11.608;2022-11-15T12:10:05;13.70;26.70
11399;DHT22;5755;48.116;11.608;2022-11-15T12:13:02;13.70;26.80
11399;DHT22;5755;48.116;11.608;2022-11-15T12:19:00;13.90;26.90
11399;DHT22;5755;48.116;11.608;2022-11-15T12:28:06;13.90;25.50
11399;DHT22;5755;48.116;11.608;2022-11-15T12:30:44;13.90;25.70
11399;DHT22;5755;48.116;11.608;2022-11-15T12:33:29;14.00;24.20
11399;DHT22;5755;48.116;11.608;2022-11-15T12:36:03;14.00;24.60
11399;DHT22;5755;48.116;11.608;2022-11-15T12:38:54;14.10;23.70
11399;DHT22;5755;48.116;11.608;2022-11-15T12:41:43;14.10;23.80
11399;DHT22;5755;48.116;11.608;2022-11-15T13:06:08;14.00;26.10
11399;DHT22;5755;48.116;11.608;2022-11-15T13:11:51;14.00;26.50
11399;DHT22;5755;48.116;11.608;2022-11-15T13:14:44;14.00;27.00
11399;DHT22;5755;48.116;11.608;2022-11-15T13:24:20;13.90;26.90
11399;DHT22;5755;48.116;11.608;2022-11-15T13:26:55;14.00;27.00
11399;DHT22;5755;48.116;11.608;2022-11-15T13:29:31;14.10;27.00
11399;DHT22;5755;48.116;11.608;2022-11-15T13:32:01;14.10;27.00
11399;DHT22;5755;48.116;11.608;2022-11-15T13:34:31;14.10;27.00
11399;DHT22;5755;48.116;11.608;2022-11-15T13:43:50;14.00;27.00
11399;DHT22;5755;48.116;11.608;2022-11-15T14:01:13;13.70;26.70
11399;DHT22;5755;48.116;11.608;2022-11-15T14:07:04;13.80;26.80
11399;DHT22;5755;48.116;11.608;2022-11-15T14:12:54;13.50;26.60
11399;DHT22;5755;48.116;11.608;2022-11-15T14:22:15;13.20;29.20
11399;DHT22;5755;48.116;11.608;2022-11-15T14:31:38;13.10;30.00
11399;DHT22;5755;48.116;11.608;2022-11-15T14:38:00;12.90;33.70
11399;DHT22;5755;48.116;11.608;2022-11-15T14:44:24;12.70;36.40
11399;DHT22;5755;48.116;11.608;2022-11-15T14:50:16;12.40;36.30
11399;DHT22;5755;48.116;11.608;2022-11-15T15:16:04;11.20;51.80
11399;DHT22;5755;48.116;11.608;2022-11-15T15:21:52;10.90;56.30
11399;DHT22;5755;48.116;11.608;2022-11-15T15:24:43;10.80;58.60
11399;DHT22;5755;48.116;11.608;2022-11-15T15:27:10;10.70;60.10
11399;DHT22;5755;48.116;11.608;2022-11-15T15:29:38;10.60;61.90
11399;DHT22;5755;48.116;11.608;2022-11-15T15:35:39;10.40;67.00
11399;DHT22;5755;48.116;11.608;2022-11-15T15:38:43;10.30;67.20
11399;DHT22;5755;48.116;11.608;2022-11-15T15:44:33;10.20;73.20
11399;DHT22;5755;48.116;11.608;2022-11-15T15:50:28;10.10;77.40
11399;DHT22;5755;48.116;11.608;2022-11-15T15:52:58;10.20;81.10
11399;DHT22;5755;48.116;11.608;2022-11-15T16:02:40;10.20;89.10
11399;DHT22;5755;48.116;11.608;2022-11-15T16:11:52;10.30;90.90
11399;DHT22;5755;48.116;11.608;2022-11-15T16:14:21;10.20;91.10
11399;DHT22;5755;48.116;11.608;2022-11-15T16:20:28;10.10;91.20
11399;DHT22;5755;48.116;11.608;2022-11-15T16:29:45;10.00;91.70
11399;DHT22;5755;48.116;11.608;2022-11-15T17:00:22;9.60;93.30
11399;DHT22;5755;48.116;11.608;2022-11-15T17:03:10;9.60;93.70
11399;DHT22;5755;48.116;11.608;2022-11-15T17:19:59;9.60;93.60
11399;DHT22;5755;48.116;11.608;2022-11-15T17:32:45;9.20;94.80
11399;DHT22;5755;48.116;11.608;2022-11-15T17:35:33;9.10;94.90
11399;DHT22;5755;48.116;11.608;2022-11-15T17:38:08;9.10;95.00
11399;DHT22;5755;48.116;11.608;2022-11-15T17:40:38;9.10;95.20
11399;DHT22;5755;48.116;11.608;2022-11-15T17:46:27;8.90;95.30
11399;DHT22;5755;48.116;11.608;2022-11-15T17:48:55;8.90;95.90
11399;DHT22;5755;48.116;11.608;2022-11-15T17:51:33;8.90;95.90
11399;DHT22;5755;48.116;11.608;2022-11-15T18:00:45;8.80;95.50
11399;DHT22;5755;48.116;11.608;2022-11-15T18:03:26;8.70;95.60
11399;DHT22;5755;48.116;11.608;2022-11-15T18:09:33;8.50;95.80
11399;DHT22;5755;48.116;11.608;2022-11-15T18:12:08;8.40;95.80
11399;DHT22;5755;48.116;11.608;2022-11-15T18:14:35;8.30;96.20
11399;DHT22;5755;48.116;11.608;2022-11-15T18:17:14;8.30;96.30
11399;DHT22;5755;48.116;11.608;2022-11-15T18:23:25;8.30;95.80
11399;DHT22;5755;48.116;11.608;2022-11-15T18:29:17;8.40;95.40
11399;DHT22;5755;48.116;11.608;2022-11-15T18:41:40;8.10;96.10
11399;DHT22;5755;48.116;11.608;2022-11-15T18:44:08;8.10;95.80
11399;DHT22;5755;48.116;11.608;2022-11-15T18:46:36;8.10;95.90
11399;DHT22;5755;48.116;11.608;2022-11-15T18:49:04;8.10;96.10
11399;DHT22;5755;48.116;11.608;2022-11-15T18:51:34;8.10;95.70
11399;DHT22;5755;48.116;11.608;2022-11-15T18:54:02;8.20;95.70
11399;DHT22;5755;48.116;11.608;2022-11-15T18:56:38;8.20;95.70
11399;DHT22;5755;48.116;11.608;2022-11-15T18:59:31;8.20;95.70
11399;DHT22;5755;48.116;11.608;2022-11-15T19:02:00;8.20;95.70
11399;DHT22;5755;48.116;11.608;2022-11-15T19:04:38;8.10;95.70
11399;DHT22;5755;48.116;11.608;2022-11-15T19:07:04;8.20;95.70
11399;DHT22;5755;48.116;11.608;2022-11-15T19:09:32;8.20;95.70
11399;DHT22;5755;48.116;11.608;2022-11-15T19:12:14;8.10;95.70
11399;DHT22;5755;48.116;11.608;2022-11-15T19:14:56;8.00;96.40
11399;DHT22;5755;48.116;11.608;2022-11-15T19:20:39;8.00;96.10
11399;DHT22;5755;48.116;11.608;2022-11-15T19:26:17;8.10;95.70
11399;DHT22;5755;48.116;11.608;2022-11-15T19:29:02;8.10;95.70
11399;DHT22;5755;48.116;11.608;2022-11-15T19:31:30;8.10;95.70
11399;DHT22;5755;48.116;11.608;2022-11-15T19:33:58;8.10;95.70
11399;DHT22;5755;48.116;11.608;2022-11-15T19:39:51;7.90;95.70
11399;DHT22;5755;48.116;11.608;2022-11-15T19:42:18;7.90;96.00
11399;DHT22;5755;48.116;11.608;2022-11-15T19:45:19;7.80;96.20
11399;DHT22;5755;48.116;11.608;2022-11-15T19:48:13;7.90;95.70
11399;DHT22;5755;48.116;11.608;2022-11-15T19:54:02;7.80;96.50
11399;DHT22;5755;48.116;11.608;2022-11-15T20:03:37;7.80;97.00
11399;DHT22;5755;48.116;11.608;2022-11-15T20:09:41;8.00;95.70
11399;DHT22;5755;48.116;11.608;2022-11-15T20:15:56;8.00;95.70
11399;DHT22;5755;48.116;11.608;2022-11-15T20:21:53;7.90;95.80
11399;DHT22;5755;48.116;11.608;2022-11-15T20:27:56;7.90;96.30
11399;DHT22;5755;48.116;11.608;2022-11-15T20:34:00;8.00;95.90
11399;DHT22;5755;48.116;11.608;2022-11-15T20:43:23;8.00;95.70
11399;DHT22;5755;48.116;11.608;2022-11-15T20:49:12;8.00;95.70
